createdAt,value
2018-04-18T00:08:27.832Z,99.99
2018-04-18T00:18:27.773Z,99.99
2018-04-18T00:28:27.835Z,99.99
2018-04-18T00:38:27.808Z,99.99
2018-04-18T00:48:27.743Z,99.99
2018-04-18T00:58:27.858Z,99.99
2018-04-18T01:08:27.790Z,99.99
2018-04-18T01:18:27.890Z,99.99
2018-04-18T01:28:27.822Z,99.99
2018-04-18T01:38:27.870Z,99.99
2018-04-18T01:48:27.814Z,99.99
2018-04-18T01:58:27.943Z,99.99
2018-04-18T02:08:27.861Z,99.99
2018-04-18T02:18:27.822Z,99.99
2018-04-18T02:28:27.892Z,99.99
2018-04-18T02:38:27.870Z,99.99
2018-04-18T02:48:27.928Z,99.99
2018-04-18T02:58:27.886Z,99.99
2018-04-18T03:08:27.940Z,99.99
2018-04-18T03:18:27.925Z,99.99
2018-04-18T03:28:27.962Z,99.99
2018-04-18T03:38:27.917Z,99.99
2018-04-18T03:48:27.994Z,99.99
2018-04-18T03:58:27.977Z,99.99
2018-04-18T04:08:28.070Z,99.99
2018-04-18T04:18:27.988Z,99.99
2018-04-18T04:28:28.035Z,99.99
2018-04-18T04:38:27.965Z,99.99
2018-04-18T04:48:28.054Z,99.99
2018-04-18T04:58:28.008Z,99.99
2018-04-18T05:08:27.988Z,99.99
2018-04-18T05:18:28.038Z,99.99
2018-04-18T05:28:28.116Z,99.99
2018-04-18T05:38:28.072Z,99.99
2018-04-18T05:48:28.043Z,99.99
2018-04-18T05:58:28.091Z,99.99
2018-04-18T06:08:28.038Z,99.99
2018-04-18T06:18:28.105Z,99.99
2018-04-18T06:28:28.067Z,99.99
2018-04-18T06:38:28.143Z,99.99
2018-04-18T06:48:28.112Z,99.99
2018-04-18T06:58:28.148Z,99.99
2018-04-18T07:08:28.101Z,99.99
2018-04-18T07:18:28.238Z,99.99
2018-04-18T07:28:28.140Z,99.99
2018-04-18T07:38:28.160Z,99.99
2018-04-18T07:48:28.188Z,99.99
2018-04-18T07:58:28.372Z,70.1
2018-04-18T08:08:28.401Z,55.42
2018-04-18T08:18:28.249Z,46.37
2018-04-18T08:28:28.663Z,43.49
2018-04-18T08:38:28.996Z,37.81
2018-04-18T08:48:29.027Z,46.2
2018-04-18T08:58:28.318Z,52.37
2018-04-18T09:08:28.179Z,55.4
2018-04-18T09:18:28.111Z,60.47
2018-04-18T09:28:28.129Z,61.57
2018-04-18T09:38:28.161Z,62.05
2018-04-18T09:48:28.236Z,62.82
2018-04-18T09:58:28.259Z,60.89
2018-04-18T10:08:28.149Z,56.77
2018-04-18T10:18:28.936Z,56.48
2018-04-18T10:28:28.187Z,58.61
2018-04-18T10:38:28.780Z,62.47
2018-04-18T10:48:28.188Z,58.93
2018-04-18T10:58:28.176Z,61.63
2018-04-18T11:08:28.287Z,60.11
2018-04-18T11:18:28.571Z,59.6
2018-04-18T11:28:28.246Z,60.6
2018-04-18T11:38:28.208Z,57.7
2018-04-18T11:48:28.160Z,57.54
2018-04-18T11:58:28.160Z,53.38
2018-04-18T12:08:28.165Z,55.31
2018-04-18T12:18:28.215Z,57.15
2018-04-18T12:28:28.179Z,54.57
2018-04-18T12:38:28.231Z,55.63
2018-04-18T12:48:28.211Z,58.63
2018-04-18T12:58:28.172Z,55.63
2018-04-18T13:08:28.190Z,57.69
2018-04-18T13:18:28.165Z,54.79
2018-04-18T13:28:28.169Z,55.49
2018-04-18T13:38:28.209Z,57.14
2018-04-18T13:48:28.220Z,57.43
2018-04-18T13:58:28.222Z,55.58
2018-04-18T14:08:28.195Z,54.91
2018-04-18T14:18:28.171Z,55.4
2018-04-18T14:28:28.349Z,55.88
2018-04-18T14:38:28.256Z,57.91
2018-04-18T14:48:28.749Z,53
2018-04-18T14:58:28.449Z,58.78
2018-04-18T15:08:28.658Z,54.81
2018-04-18T15:18:28.543Z,54.45
2018-04-18T15:28:28.716Z,50.38
2018-04-18T15:38:28.627Z,54.91
2018-04-18T15:48:28.595Z,51.62
2018-04-18T15:58:28.663Z,51.2
2018-04-18T16:08:28.630Z,55.07
2018-04-18T16:18:28.321Z,50.33
2018-04-18T16:28:28.328Z,50.62
2018-04-18T16:38:32.769Z,48.95
2018-04-18T16:48:30.351Z,51.66
2018-04-18T16:58:29.238Z,51.37
2018-04-18T17:08:38.047Z,50.76
2018-04-18T17:18:28.263Z,50.48
2018-04-18T17:28:28.327Z,51.35
2018-04-18T17:38:35.797Z,54.99
2018-04-18T17:58:28.330Z,58.61
2018-04-18T18:08:53.745Z,61.64
2018-04-18T18:18:55.601Z,63.79
2018-04-18T18:28:53.589Z,67.1
2018-04-18T18:38:54.763Z,68.67
2018-04-18T18:48:54.534Z,72.38
2018-04-18T18:58:55.633Z,74.37
2018-04-18T19:08:54.148Z,73.31
2018-04-18T19:18:53.940Z,76
2018-04-18T19:28:54.427Z,78.69
2018-04-18T19:38:54.259Z,81.28
2018-04-18T19:48:52.867Z,84.6
2018-04-18T19:58:28.391Z,88.25
2018-04-18T20:08:28.356Z,91.04
2018-04-18T20:18:28.339Z,93.97
2018-04-18T20:28:28.389Z,97.04
2018-04-18T20:38:28.329Z,99.99
2018-04-18T20:48:28.971Z,99.99
2018-04-18T20:58:28.430Z,99.99
2018-04-18T21:08:28.433Z,99.99
2018-04-18T21:18:28.261Z,99.99
2018-04-18T21:28:51.184Z,99.99
2018-04-18T21:38:28.699Z,99.99
2018-04-18T21:48:31.021Z,99.99
2018-04-18T21:58:28.861Z,99.99
2018-04-18T22:08:29.253Z,99.99
2018-04-18T22:18:28.462Z,99.99
2018-04-18T22:28:28.314Z,99.99
2018-04-18T22:38:28.289Z,99.99
2018-04-18T22:48:28.346Z,99.99
2018-04-18T22:58:29.059Z,99.99
2018-04-18T23:08:28.391Z,99.99
2018-04-18T23:18:28.351Z,99.99
2018-04-18T23:28:28.424Z,99.99
2018-04-18T23:38:28.349Z,99.99
2018-04-18T23:48:28.388Z,99.99
2018-04-18T23:58:28.370Z,99.99
